Time;durP1;ratioP1;P1;durP2;ratioP2;P2;SDS_P1;SDS_P2;PMS_P1;PMS_P2;Temp;Humidity;BMP_temperature;BMP_pressure;BME280_temperature;BME280_humidity;BME280_pressure;Samples;Min_cycle;Max_cycle;Signal;HPM_P1;HPM_P2
2023/12/14 00:00:05;;;;;;;0.40;0.40;;;;;;;;;;6214991;23;20024;-86
2023/12/14 00:02:31;;;;;;;0.40;0.40;;;;;;;;;;6240791;23;20016;-88
2023/12/14 00:04:57;;;;;;;0.43;0.43;;;;;;;;;;6269313;22;20376;-87
2023/12/14 00:07:23;;;;;;;0.40;0.40;;;;;;;;;;6240983;23;20051;-86
2023/12/14 00:09:50;;;;;;;0.40;0.40;;;;;;;;;;6267949;22;20024;-87
2023/12/14 00:12:21;;;;;;;0.50;0.50;;;;;;;;;;6271136;22;20057;-87
2023/12/14 00:41:05;;;;;;;0.50;0.50;;;;;;;;;;6258712;22;20025;-88
2023/12/14 00:43:31;;;;;;;0.50;0.50;;;;;;;;;;6234526;23;20023;-87
2023/12/14 00:46:25;;;;;;;0.50;0.50;;;;;;;;;;6241630;23;20004;-87
2023/12/14 00:49:10;;;;;;;0.50;0.50;;;;;;;;;;6219694;23;20031;-88
2023/12/14 01:05:02;;;;;;;0.50;0.50;;;;;;;;;;6268104;22;20026;-87
2023/12/14 01:07:39;;;;;;;0.50;0.50;;;;;;;;;;6274670;22;20008;-86
2023/12/14 01:10:09;;;;;;;0.50;0.50;;;;;;;;;;6271596;22;20030;-85
2023/12/14 01:33:49;;;;;;;0.45;0.45;;;;;;;;;;6265265;22;20051;-86
2023/12/14 01:36:24;;;;;;;0.40;0.40;;;;;;;;;;6239821;23;20051;-87
2023/12/14 01:38:50;;;;;;;0.50;0.50;;;;;;;;;;6240751;23;20004;-88
2023/12/14 01:41:16;;;;;;;0.43;0.43;;;;;;;;;;6240844;22;20011;-87
2023/12/14 01:43:43;;;;;;;0.50;0.50;;;;;;;;;;6240957;23;20016;-87
2023/12/14 01:46:17;;;;;;;0.50;0.50;;;;;;;;;;6244562;22;20074;-87
2023/12/14 01:49:07;;;;;;;0.40;0.40;;;;;;;;;;6266524;22;20086;-88
2023/12/14 01:52:08;;;;;;;0.50;0.50;;;;;;;;;;6269952;22;20004;-87
2023/12/14 01:57:13;;;;;;;0.47;0.47;;;;;;;;;;6282162;22;20086;-87
2023/12/14 01:59:41;;;;;;;0.50;0.50;;;;;;;;;;6244023;22;20054;-87
2023/12/14 02:02:19;;;;;;;0.50;0.50;;;;;;;;;;6278661;22;20022;-88
2023/12/14 02:04:48;;;;;;;0.50;0.50;;;;;;;;;;6251392;22;20008;-88
2023/12/14 02:15:02;;;;;;;0.40;0.40;;;;;;;;;;6239120;22;20028;-89
2023/12/14 02:17:28;;;;;;;0.40;0.40;;;;;;;;;;6182586;23;20390;-87
2023/12/14 02:20:09;;;;;;;0.50;0.50;;;;;;;;;;6190258;23;20035;-86
2023/12/14 02:22:50;;;;;;;0.50;0.50;;;;;;;;;;6191358;22;20024;-85
2023/12/14 02:25:16;;;;;;;0.40;0.40;;;;;;;;;;6182597;23;20444;-86
2023/12/14 02:27:52;;;;;;;0.50;0.50;;;;;;;;;;6207617;23;20048;-87
2023/12/14 02:30:21;;;;;;;0.50;0.50;;;;;;;;;;6182372;23;20052;-88
2023/12/14 02:32:51;;;;;;;0.50;0.50;;;;;;;;;;6187626;22;20031;-86
2023/12/14 02:35:19;;;;;;;0.40;0.40;;;;;;;;;;6184240;23;20151;-88
2023/12/14 02:37:45;;;;;;;0.50;0.50;;;;;;;;;;6208739;23;20074;-87
2023/12/14 02:40:11;;;;;;;0.50;0.50;;;;;;;;;;6208166;23;20027;-87
2023/12/14 02:42:37;;;;;;;0.50;0.50;;;;;;;;;;6236405;23;20083;-88
2023/12/14 02:45:04;;;;;;;0.40;0.40;;;;;;;;;;6208809;23;20028;-87
2023/12/14 02:47:30;;;;;;;0.50;0.50;;;;;;;;;;6181209;23;20022;-89
2023/12/14 02:49:56;;;;;;;0.40;0.40;;;;;;;;;;6182505;23;20017;-88
2023/12/14 02:52:24;;;;;;;0.45;0.45;;;;;;;;;;6233502;23;20067;-86
2023/12/14 02:54:50;;;;;;;0.50;0.50;;;;;;;;;;6181747;23;20027;-85
2023/12/14 02:57:16;;;;;;;0.40;0.40;;;;;;;;;;6182371;23;20076;-89
2023/12/14 02:59:42;;;;;;;0.40;0.40;;;;;;;;;;6208046;23;20020;-88
2023/12/14 03:09:56;;;;;;;0.50;0.50;;;;;;;;;;6262741;22;20079;-86
2023/12/14 03:12:23;;;;;;;0.50;0.50;;;;;;;;;;6263325;23;20016;-86
2023/12/14 03:14:49;;;;;;;0.50;0.50;;;;;;;;;;6238426;23;20020;-87
2023/12/14 03:17:16;;;;;;;0.50;0.50;;;;;;;;;;6237311;23;20020;-88
2023/12/14 03:30:07;;;;;;;0.50;0.50;;;;;;;;;;6264875;22;20039;-87
2023/12/14 03:32:34;;;;;;;0.50;0.50;;;;;;;;;;6236968;23;20055;-87
2023/12/14 03:35:00;;;;;;;0.40;0.40;;;;;;;;;;6242347;22;20016;-88
2023/12/14 03:37:26;;;;;;;0.50;0.50;;;;;;;;;;6236450;23;20020;-88
2023/12/14 03:39:52;;;;;;;0.50;0.50;;;;;;;;;;6236901;23;20072;-88
2023/12/14 03:42:19;;;;;;;0.50;0.50;;;;;;;;;;6272621;23;20024;-87
2023/12/14 03:44:45;;;;;;;0.50;0.50;;;;;;;;;;6261478;23;20320;-87
2023/12/14 03:47:11;;;;;;;0.40;0.40;;;;;;;;;;6236455;23;20013;-87
2023/12/14 03:49:38;;;;;;;0.40;0.40;;;;;;;;;;6262673;23;20020;-88
2023/12/14 03:52:04;;;;;;;0.45;0.45;;;;;;;;;;6237256;23;20016;-87
2023/12/14 03:54:31;;;;;;;0.40;0.40;;;;;;;;;;6237483;23;20024;-87
2023/12/14 03:56:57;;;;;;;0.50;0.50;;;;;;;;;;6236167;23;20020;-86
2023/12/14 03:59:23;;;;;;;0.40;0.40;;;;;;;;;;6263925;23;20027;-87
2023/12/14 04:01:49;;;;;;;0.50;0.50;;;;;;;;;;6242518;23;20023;-88
2023/12/14 04:04:15;;;;;;;0.50;0.50;;;;;;;;;;6267730;23;20020;-85
2023/12/14 04:06:41;;;;;;;0.50;0.50;;;;;;;;;;6239936;23;20023;-87
2023/12/14 04:09:07;;;;;;;0.40;0.40;;;;;;;;;;6264101;23;20099;-88
2023/12/14 04:11:33;;;;;;;0.40;0.40;;;;;;;;;;6239310;23;20023;-87
2023/12/14 04:17:24;;;;;;;0.50;0.50;;;;;;;;;;6286807;22;20003;-87
2023/12/14 04:20:07;;;;;;;0.40;0.40;;;;;;;;;;6255389;22;20078;-86
2023/12/14 04:22:33;;;;;;;0.40;0.40;;;;;;;;;;6262992;23;20020;-87
2023/12/14 04:24:59;;;;;;;0.55;0.55;;;;;;;;;;6238410;23;20027;-86
2023/12/14 04:27:28;;;;;;;0.40;0.40;;;;;;;;;;6237817;23;20024;-88
2023/12/14 04:29:54;;;;;;;0.50;0.50;;;;;;;;;;6238894;23;20016;-87
2023/12/14 04:32:20;;;;;;;0.50;0.50;;;;;;;;;;6267559;22;19996;-88
2023/12/14 04:34:49;;;;;;;0.40;0.40;;;;;;;;;;6245429;22;20012;-86
2023/12/14 04:37:15;;;;;;;0.40;0.40;;;;;;;;;;6227814;22;20024;-88
2023/12/14 04:39:41;;;;;;;0.40;0.40;;;;;;;;;;6246885;23;20017;-87
2023/12/14 04:42:07;;;;;;;0.50;0.50;;;;;;;;;;6235648;23;20027;-87
2023/12/14 04:44:42;;;;;;;0.50;0.50;;;;;;;;;;6237076;23;20028;-88
2023/12/14 04:47:08;;;;;;;0.40;0.40;;;;;;;;;;6229276;22;20023;-88
2023/12/14 04:49:34;;;;;;;0.40;0.40;;;;;;;;;;6241428;23;20024;-86
2023/12/14 04:52:00;;;;;;;0.50;0.50;;;;;;;;;;6264438;23;20087;-86
2023/12/14 04:57:02;;;;;;;0.50;0.50;;;;;;;;;;6256078;22;20024;-86
2023/12/14 04:59:28;;;;;;;0.50;0.50;;;;;;;;;;6240080;23;20020;-88
2023/12/14 05:01:54;;;;;;;0.55;0.55;;;;;;;;;;6238964;23;20019;-89
2023/12/14 05:04:21;;;;;;;0.50;0.50;;;;;;;;;;6244667;23;20020;-87
2023/12/14 05:07:06;;;;;;;0.40;0.40;;;;;;;;;;6269686;22;20019;-89
2023/12/14 05:09:32;;;;;;;0.45;0.45;;;;;;;;;;6264588;22;20020;-88
2023/12/14 05:11:58;;;;;;;0.40;0.40;;;;;;;;;;6241541;23;20020;-88
2023/12/14 05:14:33;;;;;;;0.40;0.40;;;;;;;;;;6243888;22;20015;-87
2023/12/14 05:17:02;;;;;;;0.50;0.50;;;;;;;;;;6238173;23;20046;-92
2023/12/14 05:22:04;;;;;;;0.50;0.50;;;;;;;;;;6252412;22;20057;-91
2023/12/14 05:27:06;;;;;;;0.40;0.40;;;;;;;;;;6264089;22;20017;-91
2023/12/14 05:32:09;;;;;;;1.48;1.15;;;;;;;;;;6246822;22;20044;-91
2023/12/14 05:42:22;;;;;;;0.50;0.50;;;;;;;;;;6267814;22;20008;-91
2023/12/14 05:44:49;;;;;;;0.50;0.50;;;;;;;;;;6269515;22;20031;-92
2023/12/14 05:47:15;;;;;;;0.50;0.50;;;;;;;;;;6241898;23;20020;-90
2023/12/14 05:52:18;;;;;;;0.50;0.50;;;;;;;;;;6287491;22;20050;-92
2023/12/14 05:54:44;;;;;;;0.40;0.40;;;;;;;;;;6272034;22;20038;-91
2023/12/14 05:57:12;;;;;;;0.50;0.50;;;;;;;;;;6272653;22;20019;-92
2023/12/14 05:59:39;;;;;;;0.40;0.40;;;;;;;;;;6247267;22;20015;-93
2023/12/14 06:02:06;;;;;;;0.40;0.40;;;;;;;;;;6246785;22;20047;-92
2023/12/14 06:12:19;;;;;;;0.50;0.50;;;;;;;;;;6277360;22;20329;-92
2023/12/14 06:14:45;;;;;;;0.50;0.50;;;;;;;;;;6269416;22;20064;-92
2023/12/14 06:17:11;;;;;;;0.43;0.43;;;;;;;;;;6241239;23;20043;-91
2023/12/14 06:32:36;;;;;;;0.50;0.50;;;;;;;;;;6236450;22;20017;-93
2023/12/14 06:35:02;;;;;;;0.60;0.60;;;;;;;;;;6210937;23;20028;-91
2023/12/14 06:37:28;;;;;;;0.50;0.50;;;;;;;;;;6209686;23;20021;-91
2023/12/14 06:45:08;;;;;;;0.50;0.50;;;;;;;;;;6242484;22;20028;-91
2023/12/14 06:47:34;;;;;;;0.50;0.50;;;;;;;;;;6238188;23;20027;-92
2023/12/14 06:52:36;;;;;;;0.40;0.40;;;;;;;;;;6243494;22;20484;-92
2023/12/14 06:55:02;;;;;;;0.50;0.50;;;;;;;;;;6210338;23;20079;-93
2023/12/14 06:57:29;;;;;;;0.57;0.57;;;;;;;;;;6237412;22;20052;-93
2023/12/14 07:07:42;;;;;;;0.50;0.50;;;;;;;;;;6264192;22;20024;-87
2023/12/14 07:10:08;;;;;;;0.50;0.50;;;;;;;;;;6236310;23;20024;-87
2023/12/14 07:12:34;;;;;;;0.50;0.50;;;;;;;;;;6238201;23;20016;-87
2023/12/14 07:17:35;;;;;;;0.45;0.45;;;;;;;;;;6250536;22;20019;-87
2023/12/14 07:20:01;;;;;;;0.40;0.40;;;;;;;;;;6235476;23;20020;-87
2023/12/14 07:22:28;;;;;;;0.50;0.50;;;;;;;;;;6209850;23;20021;-88
2023/12/14 07:24:55;;;;;;;0.50;0.50;;;;;;;;;;6241091;22;20020;-86
2023/12/14 07:27:21;;;;;;;0.40;0.40;;;;;;;;;;6268270;22;20019;-88
2023/12/14 07:29:54;;;;;;;0.40;0.40;;;;;;;;;;6246489;22;20012;-87
2023/12/14 07:34:56;;;;;;;0.40;0.40;;;;;;;;;;6276761;22;20020;-87
2023/12/14 07:45:10;;;;;;;0.50;0.50;;;;;;;;;;6260981;22;20080;-86
2023/12/14 07:47:36;;;;;;;0.40;0.40;;;;;;;;;;6239603;23;20024;-87
2023/12/14 07:50:07;;;;;;;0.50;0.50;;;;;;;;;;6247747;22;20018;-87
2023/12/14 07:52:52;;;;;;;0.50;0.50;;;;;;;;;;6252004;23;20042;-87
2023/12/14 07:55:19;;;;;;;0.50;0.50;;;;;;;;;;6265376;23;20459;-87
2023/12/14 07:57:48;;;;;;;0.43;0.43;;;;;;;;;;6266142;23;20239;-87
2023/12/14 08:00:16;;;;;;;0.50;0.50;;;;;;;;;;6242352;23;20129;-85
2023/12/14 08:03:02;;;;;;;0.50;0.50;;;;;;;;;;6251065;22;20005;-85
2023/12/14 08:05:41;;;;;;;0.50;0.50;;;;;;;;;;6249139;23;20024;-87
2023/12/14 08:08:07;;;;;;;0.43;0.43;;;;;;;;;;6265925;23;20027;-89
2023/12/14 08:10:33;;;;;;;0.50;0.50;;;;;;;;;;6239247;23;20020;-88
2023/12/14 08:12:59;;;;;;;0.43;0.43;;;;;;;;;;6239001;23;20020;-88
2023/12/14 08:15:25;;;;;;;0.50;0.50;;;;;;;;;;6239508;23;20099;-88
2023/12/14 08:17:51;;;;;;;0.40;0.40;;;;;;;;;;6239607;23;20042;-87
2023/12/14 08:20:17;;;;;;;0.40;0.40;;;;;;;;;;6265538;23;20043;-86
2023/12/14 08:22:55;;;;;;;0.50;0.50;;;;;;;;;;6241948;23;20024;-86
2023/12/14 08:25:22;;;;;;;0.50;0.50;;;;;;;;;;6239639;23;20082;-87
2023/12/14 08:27:48;;;;;;;0.50;0.50;;;;;;;;;;6247945;23;20012;-87
2023/12/14 08:30:17;;;;;;;0.40;0.40;;;;;;;;;;6241168;23;20071;-87
2023/12/14 08:32:43;;;;;;;0.50;0.50;;;;;;;;;;6239125;23;20016;-88
2023/12/14 08:35:10;;;;;;;0.40;0.40;;;;;;;;;;6238944;23;20095;-88
2023/12/14 08:37:36;;;;;;;0.35;0.35;;;;;;;;;;6264794;23;20046;-88
2023/12/14 08:40:03;;;;;;;0.50;0.50;;;;;;;;;;6264861;23;20047;-88
2023/12/14 08:42:29;;;;;;;0.50;0.50;;;;;;;;;;6239994;23;20020;-88
2023/12/14 08:44:55;;;;;;;0.50;0.50;;;;;;;;;;6228373;22;20020;-86
2023/12/14 08:47:21;;;;;;;0.50;0.50;;;;;;;;;;6240630;23;20031;-87
2023/12/14 08:49:47;;;;;;;0.50;0.50;;;;;;;;;;6266168;23;20027;-87
2023/12/14 08:52:14;;;;;;;0.50;0.50;;;;;;;;;;6265628;23;20089;-89
2023/12/14 08:54:43;;;;;;;0.50;0.50;;;;;;;;;;6240487;23;20028;-88
2023/12/14 08:57:09;;;;;;;0.40;0.40;;;;;;;;;;6239779;22;20012;-88
2023/12/14 08:59:35;;;;;;;0.40;0.40;;;;;;;;;;6239769;23;20009;-88
2023/12/14 09:02:02;;;;;;;0.40;0.40;;;;;;;;;;6240884;23;20012;-87
2023/12/14 09:07:54;;;;;;;0.40;0.40;;;;;;;;;;6240859;22;20025;-87
2023/12/14 09:10:25;;;;;;;0.50;0.50;;;;;;;;;;6209201;23;20451;-89
2023/12/14 09:12:51;;;;;;;0.45;0.45;;;;;;;;;;6234738;23;20080;-88
2023/12/14 09:15:17;;;;;;;0.50;0.50;;;;;;;;;;6209732;23;20051;-89
2023/12/14 09:17:43;;;;;;;0.50;0.50;;;;;;;;;;6207837;23;20020;-87
2023/12/14 09:20:09;;;;;;;0.40;0.40;;;;;;;;;;6217697;23;20016;-87
2023/12/14 09:25:11;;;;;;;0.40;0.40;;;;;;;;;;6240158;22;20035;-89
2023/12/14 09:27:42;;;;;;;0.50;0.50;;;;;;;;;;6206920;23;20017;-89
2023/12/14 09:30:08;;;;;;;0.50;0.50;;;;;;;;;;6207902;23;20017;-88
2023/12/14 09:32:34;;;;;;;0.40;0.40;;;;;;;;;;6208218;23;20143;-87
2023/12/14 09:35:00;;;;;;;0.40;0.40;;;;;;;;;;6210248;23;20626;-87
2023/12/14 09:37:26;;;;;;;0.40;0.40;;;;;;;;;;6234587;23;20090;-88
2023/12/14 09:39:52;;;;;;;0.50;0.50;;;;;;;;;;6211244;23;20305;-86
2023/12/14 09:42:20;;;;;;;0.40;0.40;;;;;;;;;;6236490;23;20020;-86
2023/12/14 09:44:48;;;;;;;0.40;0.40;;;;;;;;;;6235448;23;20020;-86
2023/12/14 09:47:16;;;;;;;0.50;0.50;;;;;;;;;;6208721;23;20044;-91
2023/12/14 09:49:45;;;;;;;0.40;0.40;;;;;;;;;;6213620;23;20035;-88
2023/12/14 09:52:28;;;;;;;0.47;0.47;;;;;;;;;;6237744;23;20032;-89
2023/12/14 09:54:54;;;;;;;0.40;0.40;;;;;;;;;;6232436;23;20020;-87
2023/12/14 09:57:20;;;;;;;0.50;0.50;;;;;;;;;;6210636;23;20436;-90
2023/12/14 09:59:53;;;;;;;0.40;0.40;;;;;;;;;;6211782;23;20052;-88
2023/12/14 10:02:47;;;;;;;0.30;0.30;;;;;;;;;;6214281;23;20031;-88
2023/12/14 10:05:17;;;;;;;0.47;0.47;;;;;;;;;;6212805;23;20057;-87
2023/12/14 10:07:44;;;;;;;0.40;0.40;;;;;;;;;;6209358;23;20047;-88
2023/12/14 10:10:11;;;;;;;0.40;0.40;;;;;;;;;;6210249;23;20019;-88
2023/12/14 10:13:14;;;;;;;0.43;0.43;;;;;;;;;;6239072;23;20051;-86
2023/12/14 10:18:23;;;;;;;0.50;0.50;;;;;;;;;;6235521;22;20020;-87
2023/12/14 10:20:49;;;;;;;0.40;0.40;;;;;;;;;;6237625;23;20071;-87
2023/12/14 10:23:15;;;;;;;0.50;0.50;;;;;;;;;;6208074;23;20048;-88
2023/12/14 10:25:42;;;;;;;0.40;0.40;;;;;;;;;;6233258;23;20060;-89
2023/12/14 10:28:09;;;;;;;0.50;0.50;;;;;;;;;;6208080;23;20022;-86
2023/12/14 10:30:54;;;;;;;;;;;;;;;;;;6237755;23;20056;-87
2023/12/14 10:33:26;;;;;;;0.40;0.40;;;;;;;;;;6243525;23;19919;-87
2023/12/14 10:36:11;;;;;;;0.40;0.40;;;;;;;;;;6237737;23;20008;-87
2023/12/14 10:38:38;;;;;;;0.40;0.40;;;;;;;;;;6234879;23;20020;-86
2023/12/14 10:41:12;;;;;;;0.40;0.40;;;;;;;;;;6214140;23;20035;-88
2023/12/14 10:43:39;;;;;;;0.43;0.43;;;;;;;;;;6212265;23;20088;-88
2023/12/14 10:46:11;;;;;;;0.30;0.30;;;;;;;;;;6206776;23;20047;-88
2023/12/14 10:48:37;;;;;;;0.40;0.40;;;;;;;;;;6211869;23;20025;-87
2023/12/14 10:51:05;;;;;;;0.40;0.40;;;;;;;;;;6207222;23;20098;-88
2023/12/14 10:53:31;;;;;;;0.40;0.40;;;;;;;;;;6235737;23;20096;-88
2023/12/14 10:56:00;;;;;;;0.40;0.40;;;;;;;;;;6207973;23;20028;-88
2023/12/14 10:58:26;;;;;;;0.50;0.50;;;;;;;;;;6234508;23;20027;-87
2023/12/14 11:01:04;;;;;;;0.40;0.40;;;;;;;;;;6207306;23;20031;-85
2023/12/14 11:03:34;;;;;;;0.40;0.40;;;;;;;;;;6232446;23;20043;-89
2023/12/14 11:09:24;;;;;;;0.30;0.30;;;;;;;;;;6243592;23;20053;-86
2023/12/14 11:12:09;;;;;;;0.40;0.40;;;;;;;;;;6236779;23;20021;-87
2023/12/14 11:14:39;;;;;;;0.40;0.40;;;;;;;;;;6238346;23;20017;-85
2023/12/14 11:17:23;;;;;;;;;;;;;;;;;;6243651;23;20036;-86
2023/12/14 11:19:50;;;;;;;0.40;0.40;;;;;;;;;;6225276;22;19944;-87
2023/12/14 11:22:24;;;;;;;0.40;0.40;;;;;;;;;;6231969;23;20031;-86
2023/12/14 11:24:54;;;;;;;0.40;0.40;;;;;;;;;;6206368;23;20521;-85
2023/12/14 11:27:27;;;;;;;0.40;0.40;;;;;;;;;;6204668;23;20024;-87
2023/12/14 11:29:54;;;;;;;0.40;0.40;;;;;;;;;;6231438;23;20013;-87
2023/12/14 11:32:20;;;;;;;0.40;0.40;;;;;;;;;;6231119;23;20021;-86
2023/12/14 11:34:47;;;;;;;0.40;0.40;;;;;;;;;;6239937;23;20039;-86
2023/12/14 11:37:13;;;;;;;0.40;0.40;;;;;;;;;;6179207;23;20013;-88
2023/12/14 11:39:43;;;;;;;0.40;0.40;;;;;;;;;;6231743;23;20044;-87
2023/12/14 11:42:10;;;;;;;0.50;0.50;;;;;;;;;;6206206;23;20038;-87
2023/12/14 11:44:38;;;;;;;0.50;0.50;;;;;;;;;;6206122;23;20522;-85
2023/12/14 11:47:08;;;;;;;0.30;0.30;;;;;;;;;;6206425;23;20020;-88
2023/12/14 11:49:36;;;;;;;0.40;0.40;;;;;;;;;;6239089;23;20011;-86
2023/12/14 11:52:07;;;;;;;0.40;0.40;;;;;;;;;;6238818;23;20039;-84
2023/12/14 11:54:33;;;;;;;0.50;0.50;;;;;;;;;;6210757;22;20105;-88
2023/12/14 11:57:02;;;;;;;0.40;0.40;;;;;;;;;;6245645;22;20462;-87
2023/12/14 11:59:28;;;;;;;0.50;0.50;;;;;;;;;;6294384;22;20020;-88
2023/12/14 12:01:56;;;;;;;0.38;0.38;;;;;;;;;;6269721;22;20020;-88
2023/12/14 12:10:29;;;;;;;0.40;0.40;;;;;;;;;;6264956;23;20020;-87
2023/12/14 12:13:05;;;;;;;0.40;0.40;;;;;;;;;;6238165;23;20051;-88
2023/12/14 12:15:35;;;;;;;0.50;0.50;;;;;;;;;;6212553;23;20016;-87
2023/12/14 12:21:09;;;;;;;0.47;0.47;;;;;;;;;;6240773;23;20407;-88
2023/12/14 12:28:50;;;;;;;0.40;0.40;;;;;;;;;;6261679;22;20035;-88
2023/12/14 12:31:39;;;;;;;0.40;0.40;;;;;;;;;;6270506;22;20008;-86
2023/12/14 12:34:07;;;;;;;0.40;0.40;;;;;;;;;;6264777;23;20027;-87
2023/12/14 12:36:33;;;;;;;0.30;0.30;;;;;;;;;;6261621;23;20016;-86
2023/12/14 12:39:00;;;;;;;0.40;0.40;;;;;;;;;;6263695;23;20030;-88
2023/12/14 12:41:33;;;;;;;0.40;0.40;;;;;;;;;;6248495;23;20011;-85
2023/12/14 12:44:15;;;;;;;0.40;0.40;;;;;;;;;;6261281;22;20023;-87
2023/12/14 12:46:41;;;;;;;0.40;0.40;;;;;;;;;;6236359;23;20016;-86
2023/12/14 12:49:07;;;;;;;0.40;0.40;;;;;;;;;;6240704;23;20023;-88
2023/12/14 12:51:35;;;;;;;0.40;0.40;;;;;;;;;;6238064;23;20020;-85
2023/12/14 12:54:01;;;;;;;0.40;0.40;;;;;;;;;;6264440;23;20042;-87
2023/12/14 12:56:27;;;;;;;0.40;0.40;;;;;;;;;;6263583;23;20091;-88
2023/12/14 12:58:54;;;;;;;0.40;0.40;;;;;;;;;;6239520;23;20012;-87
2023/12/14 13:01:25;;;;;;;0.40;0.40;;;;;;;;;;6216222;23;20016;-86
2023/12/14 13:04:05;;;;;;;0.40;0.40;;;;;;;;;;6220110;23;20028;-86
2023/12/14 13:06:35;;;;;;;0.40;0.40;;;;;;;;;;6224421;23;20051;-85
2023/12/14 13:14:33;;;;;;;0.40;0.40;;;;;;;;;;6234331;22;20035;-87
2023/12/14 13:16:59;;;;;;;0.40;0.40;;;;;;;;;;6206410;23;20068;-88
2023/12/14 13:19:26;;;;;;;0.40;0.40;;;;;;;;;;6209256;23;20025;-87
2023/12/14 13:21:52;;;;;;;0.40;0.40;;;;;;;;;;6235514;23;20043;-87
2023/12/14 13:24:18;;;;;;;0.40;0.40;;;;;;;;;;6231779;23;20072;-87
2023/12/14 13:26:44;;;;;;;0.40;0.40;;;;;;;;;;6232415;23;20056;-84
2023/12/14 13:38:41;;;;;;;0.40;0.40;;;;;;;;;;6293439;22;20024;-87
2023/12/14 13:44:17;;;;;;;0.40;0.40;;;;;;;;;;6278253;22;20047;-86
2023/12/14 13:49:40;;;;;;;0.50;0.50;;;;;;;;;;6258403;22;20024;-86
2023/12/14 13:52:12;;;;;;;0.50;0.50;;;;;;;;;;6273516;22;20044;-85
2023/12/14 13:54:48;;;;;;;0.40;0.40;;;;;;;;;;6274711;22;20054;-86
2023/12/14 13:57:34;;;;;;;0.40;0.40;;;;;;;;;;6275238;22;20050;-85
2023/12/14 14:00:00;;;;;;;0.40;0.40;;;;;;;;;;6236814;23;20020;-87
2023/12/14 14:02:28;;;;;;;0.40;0.40;;;;;;;;;;6260101;23;20079;-87
2023/12/14 14:05:25;;;;;;;0.40;0.40;;;;;;;;;;6270599;22;20035;-87
2023/12/14 14:08:16;;;;;;;0.40;0.40;;;;;;;;;;6273593;22;20035;-86
2023/12/14 14:10:42;;;;;;;0.40;0.40;;;;;;;;;;6265779;22;20028;-85
2023/12/14 14:13:08;;;;;;;0.40;0.40;;;;;;;;;;6264109;23;20012;-87
2023/12/14 14:15:37;;;;;;;0.40;0.40;;;;;;;;;;6262317;22;20038;-88
2023/12/14 14:18:24;;;;;;;0.40;0.40;;;;;;;;;;6235413;23;20067;-88
2023/12/14 14:20:51;;;;;;;0.40;0.40;;;;;;;;;;6262645;23;20016;-87
2023/12/14 14:23:17;;;;;;;0.40;0.40;;;;;;;;;;6235207;23;20024;-87
2023/12/14 14:25:44;;;;;;;0.40;0.40;;;;;;;;;;6235604;23;20035;-86
2023/12/14 14:28:24;;;;;;;0.40;0.40;;;;;;;;;;6261834;23;20440;-87
2023/12/14 14:30:50;;;;;;;0.30;0.30;;;;;;;;;;6240966;23;20047;-87
2023/12/14 14:33:18;;;;;;;0.40;0.40;;;;;;;;;;6236884;23;20016;-86
2023/12/14 14:35:46;;;;;;;0.40;0.40;;;;;;;;;;6248151;23;20020;-85
2023/12/14 14:38:18;;;;;;;0.40;0.40;;;;;;;;;;6215365;22;20000;-85
2023/12/14 14:40:59;;;;;;;0.38;0.38;;;;;;;;;;6266496;23;20008;-87
2023/12/14 14:43:25;;;;;;;0.40;0.40;;;;;;;;;;6233870;23;20778;-86
2023/12/14 14:45:51;;;;;;;0.40;0.40;;;;;;;;;;6233862;23;20020;-87
2023/12/14 14:48:20;;;;;;;0.40;0.40;;;;;;;;;;6261429;23;20008;-86
2023/12/14 14:50:48;;;;;;;0.38;0.38;;;;;;;;;;6261033;22;20022;-87
2023/12/14 14:53:14;;;;;;;0.40;0.40;;;;;;;;;;6272824;23;20040;-85
2023/12/14 14:55:43;;;;;;;0.30;0.30;;;;;;;;;;6263601;22;20022;-86
2023/12/14 14:58:09;;;;;;;0.40;0.40;;;;;;;;;;6234590;23;20050;-86
2023/12/14 15:00:38;;;;;;;0.40;0.40;;;;;;;;;;6235879;23;20012;-88
2023/12/14 15:03:08;;;;;;;0.43;0.43;;;;;;;;;;6246119;23;20032;-84
2023/12/14 15:05:49;;;;;;;0.40;0.40;;;;;;;;;;6260517;23;20833;-86
2023/12/14 15:08:15;;;;;;;0.60;0.60;;;;;;;;;;6260893;23;20019;-84
2023/12/14 15:10:41;;;;;;;0.30;0.30;;;;;;;;;;6236958;23;20027;-86
2023/12/14 15:13:09;;;;;;;0.40;0.40;;;;;;;;;;6235696;23;20023;-86
2023/12/14 15:15:38;;;;;;;0.40;0.40;;;;;;;;;;6234784;23;20048;-87
2023/12/14 15:18:05;;;;;;;0.50;0.50;;;;;;;;;;6263734;23;20016;-87
2023/12/14 15:20:40;;;;;;;0.50;0.50;;;;;;;;;;6274980;22;20020;-87
2023/12/14 15:23:26;;;;;;;0.50;0.50;;;;;;;;;;6264852;23;20016;-88
2023/12/14 15:25:53;;;;;;;0.30;0.30;;;;;;;;;;6264901;23;20064;-88
2023/12/14 15:28:19;;;;;;;0.35;0.35;;;;;;;;;;6259994;23;20012;-86
2023/12/14 15:30:57;;;;;;;0.50;0.50;;;;;;;;;;6273477;22;20355;-87
2023/12/14 15:33:23;;;;;;;0.40;0.40;;;;;;;;;;6235218;23;20039;-86
2023/12/14 15:35:53;;;;;;;0.40;0.40;;;;;;;;;;6233773;23;20065;-88
2023/12/14 15:38:22;;;;;;;0.40;0.40;;;;;;;;;;6237095;23;20029;-88
2023/12/14 15:41:07;;;;;;;0.40;0.40;;;;;;;;;;6247472;23;20001;-85
2023/12/14 15:43:33;;;;;;;0.30;0.30;;;;;;;;;;6257976;23;20013;-88
2023/12/14 15:46:00;;;;;;;0.30;0.30;;;;;;;;;;6231971;23;20024;-87
2023/12/14 15:48:33;;;;;;;0.40;0.40;;;;;;;;;;6232943;23;20042;-86
2023/12/14 16:01:21;;;;;;;0.40;0.40;;;;;;;;;;6226049;22;20019;-91
2023/12/14 16:08:58;;;;;;;0.38;0.38;;;;;;;;;;6261798;22;20043;-92
2023/12/14 16:24:25;;;;;;;0.50;0.50;;;;;;;;;;6300001;22;20392;-92
2023/12/14 16:34:38;;;;;;;0.40;0.40;;;;;;;;;;6235916;22;20087;-90
2023/12/14 16:37:04;;;;;;;0.40;0.40;;;;;;;;;;6266691;23;20064;-92
2023/12/14 16:39:31;;;;;;;0.50;0.50;;;;;;;;;;6268154;23;20043;-92
2023/12/14 16:52:55;;;;;;;0.40;0.40;;;;;;;;;;6222050;22;20047;-90
2023/12/14 16:55:21;;;;;;;0.50;0.50;;;;;;;;;;6270566;22;20031;-93
2023/12/14 16:57:47;;;;;;;0.40;0.40;;;;;;;;;;6246027;22;20021;-93
2023/12/14 17:00:13;;;;;;;0.50;0.50;;;;;;;;;;6244855;22;20015;-93
2023/12/14 17:20:50;;;;;;;0.50;0.50;;;;;;;;;;6241233;22;19916;-92
2023/12/14 17:23:16;;;;;;;0.50;0.50;;;;;;;;;;6242085;23;20024;-93
2023/12/14 17:25:43;;;;;;;0.40;0.40;;;;;;;;;;6267471;23;20040;-91
2023/12/14 17:28:10;;;;;;;0.50;0.50;;;;;;;;;;6266976;23;20023;-92
2023/12/14 17:43:36;;;;;;;0.50;0.50;;;;;;;;;;6270149;22;20080;-90
2023/12/14 17:46:03;;;;;;;0.40;0.40;;;;;;;;;;6264783;23;20072;-91
2023/12/14 17:51:22;;;;;;;0.40;0.40;;;;;;;;;;6229202;22;20080;-92
2023/12/14 17:53:50;;;;;;;0.40;0.40;;;;;;;;;;6240144;23;20020;-92
2023/12/14 17:56:17;;;;;;;0.40;0.40;;;;;;;;;;6265732;23;20020;-92
2023/12/14 17:58:44;;;;;;;0.40;0.40;;;;;;;;;;6241053;23;20048;-91
2023/12/14 18:03:52;;;;;;;0.40;0.40;;;;;;;;;;6266467;22;20004;-91
2023/12/14 18:06:19;;;;;;;0.57;0.57;;;;;;;;;;6240198;23;20034;-92
2023/12/14 18:13:57;;;;;;;0.40;0.40;;;;;;;;;;6236290;22;20035;-92
2023/12/14 18:16:24;;;;;;;0.40;0.40;;;;;;;;;;6209297;23;20067;-90
2023/12/14 18:21:27;;;;;;;0.40;0.40;;;;;;;;;;6267759;22;20025;-91
2023/12/14 18:23:53;;;;;;;0.40;0.40;;;;;;;;;;6247103;22;20425;-93
2023/12/14 18:26:19;;;;;;;0.40;0.40;;;;;;;;;;6231546;22;20220;-92
2023/12/14 18:41:44;;;;;;;0.43;0.43;;;;;;;;;;6262405;22;20141;-89
2023/12/14 18:44:10;;;;;;;0.40;0.40;;;;;;;;;;6264757;23;20020;-92
2023/12/14 18:46:36;;;;;;;0.40;0.40;;;;;;;;;;6264715;23;20020;-92
2023/12/14 18:56:51;;;;;;;0.40;0.40;;;;;;;;;;6275118;22;20047;-92
2023/12/14 18:59:17;;;;;;;0.40;0.40;;;;;;;;;;6239064;23;20035;-91
2023/12/14 19:06:55;;;;;;;0.50;0.50;;;;;;;;;;6246408;22;20024;-92
2023/12/14 19:17:07;;;;;;;0.40;0.40;;;;;;;;;;6243969;22;20029;-91
2023/12/14 19:22:13;;;;;;;0.30;0.30;;;;;;;;;;6297616;22;20055;-93
2023/12/14 19:29:50;;;;;;;0.40;0.40;;;;;;;;;;6214531;22;20020;-92
2023/12/14 19:34:52;;;;;;;0.40;0.40;;;;;;;;;;6267023;22;20032;-92
2023/12/14 19:37:18;;;;;;;0.50;0.50;;;;;;;;;;6235616;23;20052;-91
2023/12/14 19:39:53;;;;;;;0.40;0.40;;;;;;;;;;6211175;23;20024;-92
2023/12/14 19:42:19;;;;;;;0.30;0.30;;;;;;;;;;6234463;23;20020;-91
2023/12/14 19:49:59;;;;;;;0.30;0.30;;;;;;;;;;6260309;22;20032;-91
2023/12/14 19:52:25;;;;;;;0.40;0.40;;;;;;;;;;6242826;22;20020;-92
2023/12/14 19:57:30;;;;;;;0.40;0.40;;;;;;;;;;6275040;22;20028;-90
2023/12/14 20:02:32;;;;;;;0.50;0.50;;;;;;;;;;6261769;22;20071;-91
2023/12/14 20:04:58;;;;;;;0.40;0.40;;;;;;;;;;6232561;22;20111;-91
2023/12/14 20:07:25;;;;;;;0.40;0.40;;;;;;;;;;6216770;23;20024;-90
2023/12/14 20:09:53;;;;;;;0.40;0.40;;;;;;;;;;6241899;23;20028;-92
2023/12/14 20:20:07;;;;;;;0.40;0.40;;;;;;;;;;6272003;22;20525;-93
2023/12/14 20:22:35;;;;;;;0.40;0.40;;;;;;;;;;6225715;22;20028;-89
2023/12/14 20:25:02;;;;;;;0.40;0.40;;;;;;;;;;6214048;23;20034;-91
2023/12/14 20:30:04;;;;;;;0.40;0.40;;;;;;;;;;6259329;22;20583;-91
2023/12/14 20:32:30;;;;;;;0.40;0.40;;;;;;;;;;6227104;22;20042;-92
2023/12/14 20:47:55;;;;;;;0.40;0.40;;;;;;;;;;6263865;22;20023;-92
2023/12/14 20:50:22;;;;;;;0.30;0.30;;;;;;;;;;6268154;23;20060;-93
2023/12/14 20:58:07;;;;;;;0.40;0.40;;;;;;;;;;6235969;22;20012;-90
2023/12/14 21:00:33;;;;;;;0.40;0.40;;;;;;;;;;6210980;23;20004;-91
2023/12/14 21:05:37;;;;;;;0.40;0.40;;;;;;;;;;6258122;22;20113;-92
2023/12/14 21:08:03;;;;;;;0.40;0.40;;;;;;;;;;6242445;23;20072;-91
2023/12/14 21:10:41;;;;;;;0.40;0.40;;;;;;;;;;6243437;22;20034;-91
2023/12/14 21:24:00;;;;;;;0.40;0.40;;;;;;;;;;6266201;22;20068;-92
2023/12/14 21:26:26;;;;;;;0.40;0.40;;;;;;;;;;6266349;23;20020;-92
2023/12/14 21:28:53;;;;;;;0.40;0.40;;;;;;;;;;6268243;22;20051;-90
2023/12/14 21:31:19;;;;;;;0.40;0.40;;;;;;;;;;6243241;22;20008;-92